Latest Weather Observations for Taree Airport

IDN60801

Issued at 5:32 pm EST Wednesday 27 May 2015 (issued every 30 minutes, with the page automatically refreshed every 10 minutes)

About weather observations | Map of weather stations | Latest weather observations for NSW | Other Formats
Station Details ID: 060141 Name: TAREE AIRPORT AWS Lat: -31.89 Lon: 152.51 Height: 8.0 m
Data from the previous 72 hours. | See also: Recent months at Taree Airport
Date/Time
EST
Temp
°C
App
Temp
°C
Dew
Point
Rel
Hum
%
Delta-T
°C
Wind Press
QNH
hPa
Press
MSL
hPa
Rain
since 9 am
mm
Dir
 
Spd
km/h
Gust
km/h
Spd
kts
Gust
kts
27/05:07pm 15.8 10.4 12.7 82 1.7 NE 33 104 18 56 1022.4 1022.4 0.0
27/05:06pm 15.8 11.6 12.5 81 1.8 NE 26 104 14 56 1022.3 1022.3 0.0
27/05:00pm 16.0 14.4 12.7 81 1.8 NE 13 28 7 15 1022.2 1022.2 0.0
27/04:30pm 17.2 16.7 12.7 75 2.5 ESE 7 11 4 6 1022.2 1022.2 0.0
27/04:00pm 18.0 17.1 12.5 70 3.0 ESE 9 13 5 7 1021.9 1021.9 0.0
27/03:30pm 19.4 17.9 10.4 56 4.8 SSW 9 11 5 6 1022.2 1022.2 0.0
27/03:00pm 21.0 18.7 7.3 41 7.0 NNW 9 13 5 7 1022.0 1022.0 0.0
27/02:30pm 20.6 18.4 7.9 44 6.6 WNW 9 13 5 7 1022.0 1022.0 0.0
27/02:00pm 20.8 18.8 8.8 46 6.3 W 9 13 5 7 1022.2 1022.2 0.0
27/01:30pm 19.6 18.9 10.0 54 5.1 SSE 4 11 2 6 1022.1 1022.1 0.0
27/01:00pm 19.3 18.0 10.0 55 4.9 SSW 7 11 4 6 1022.8 1022.8 0.0
27/12:30pm 19.6 17.9 10.0 54 5.1 NW 9 13 5 7 1023.2 1023.2 0.0
27/12:00pm 18.9 17.6 11.2 61 4.2 WSW 9 13 5 7 1023.7 1023.7 0.0
27/11:30am 18.4 16.6 11.0 62 4.0 SW 11 15 6 8 1024.0 1024.0 0.0
27/11:00am 17.4 15.3 11.0 66 3.4 SW 13 17 7 9 1024.4 1024.4 0.0
27/10:30am 16.5 14.5 11.6 73 2.7 SW 13 15 7 8 1024.7 1024.7 0.0
27/10:00am 15.6 13.3 11.6 77 2.1 SW 15 19 8 10 1024.9 1024.9 0.0
27/09:30am 14.9 13.6 11.1 78 2.0 W 9 13 5 7 1024.8 1024.8 0.0
27/09:00am 14.3 13.1 11.6 84 1.4 WNW 9 13 5 7 1025.0 1025.0 0.2
27/08:30am 12.9 11.0 10.4 85 1.3 NW 11 15 6 8 1024.9 1024.9 0.2
27/08:09am 12.3 8.6 10.0 86 1.2 WNW 20 104 11 56 1025.0 1025.0 0.2
27/08:07am 12.3 8.6 10.2 87 1.1 WNW 20 104 11 56 1025.0 1025.0 0.2
27/08:00am 12.2 10.6 10.3 88 1.0 NW 9 13 5 7 1025.1 1025.1 0.2
27/07:30am 11.4 9.8 10.3 93 0.6 NW 9 11 5 6 1024.9 1024.9 0.2
27/07:00am 11.0 9.5 10.4 96 0.3 WSW 9 11 5 6 1024.8 1024.8 0.2
27/06:36am 10.7 9.7 10.4 98 0.2 W 6 7 3 4 1024.7 1024.7 0.2
27/06:30am 10.6 10.7 10.3 98 0.2 CALM 0 7 0 4 1024.7 1024.7 0.2
27/06:19am 10.6 9.4 10.3 98 0.2 W 7 9 4 5 1024.4 1024.4 0.2
27/06:06am 10.5 8.9 10.2 98 0.2 W 9 11 5 6 1024.3 1024.3 0.2
27/06:00am 10.5 8.9 10.2 98 0.2 W 9 13 5 7 1024.3 1024.3 0.2
27/05:30am 10.3 9.0 10.0 98 0.2 W 7 9 4 5 1024.1 1024.1 0.2
27/05:00am 10.5 8.8 10.0 97 0.3 WSW 9 11 5 6 1023.9 1023.9 0.2
27/04:30am 10.7 9.2 10.4 98 0.2 W 9 11 5 6 1024.0 1024.0 0.2
27/04:29am 10.8 9.3 10.5 98 0.2 W 9 11 5 6 1024.1 1024.1 0.2
27/04:23am 10.8 9.2 10.3 97 0.3 W 9 11 5 6 1024.1 1024.1 0.2
27/04:00am 11.0 9.5 10.7 98 0.2 WSW 9 11 5 6 1024.1 1024.1 0.2
27/03:30am 11.0 9.5 10.5 97 0.3 WSW 9 11 5 6 1024.4 1024.4 0.2
27/03:24am 11.0 9.5 10.5 97 0.3 WSW 9 11 5 6 1024.5 1024.5 0.2
27/03:00am 11.4 10.3 10.6 95 0.4 NW 7 7 4 4 1024.7 1024.7 0.2
27/02:35am 11.7 -4.1 10.9 95 0.4 WNW 85 104 46 56 1025.0 1025.0 0.2
27/02:30am 11.8 -7.6 11.2 96 0.3 W 104 104 56 56 1025.1 1025.1 0.2
27/02:26am 11.6 -7.9 10.8 95 0.4 WNW 104 104 56 56 1025.1 1025.1 0.2
27/02:23am 11.7 -7.8 10.9 95 0.4 NW 104 104 56 56 1025.1 1025.1 0.2
27/02:10am 11.2 5.0 9.9 92 0.7 NW 33 104 18 56 1025.1 1025.1 0.2
27/02:09am 11.2 6.6 9.8 91 0.7 NW 24 104 13 56 1025.1 1025.1 0.2
27/02:00am 12.2 10.9 11.3 94 0.5 NW 9 13 5 7 1025.1 1025.1 0.2
27/01:37am 12.4 -4.5 11.3 93 0.6 WNW 91 104 49 56 1025.2 1025.2 0.2
27/01:30am 12.4 -3.0 11.3 93 0.6 WNW 83 104 45 56 1025.3 1025.3 0.2
27/01:25am 12.4 3.4 11.5 94 0.5 W 50 104 27 56 1025.3 1025.3 0.2
27/01:24am 12.5 4.8 11.6 94 0.5 W 43 104 23 56 1025.3 1025.3 0.2
27/01:22am 12.5 6.0 11.6 94 0.5 W 37 74 20 40 1025.3 1025.3 0.2
27/01:21am 12.5 5.2 11.6 94 0.5 W 41 85 22 46 1025.3 1025.3 0.2
27/01:15am 12.6 4.3 11.5 93 0.6 WSW 46 85 25 46 1025.3 1025.3 0.2
27/01:13am 12.5 4.2 11.4 93 0.6 WSW 46 85 25 46 1025.3 1025.3 0.2
27/01:12am 12.5 4.6 11.4 93 0.6 W 44 85 24 46 1025.3 1025.3 0.2
27/01:07am 12.7 5.7 11.4 92 0.7 W 39 78 21 42 1025.4 1025.4 0.2
27/01:00am 12.7 0.8 11.4 92 0.7 WNW 65 104 35 56 1025.3 1025.3 0.2
27/12:59am 12.7 0.9 11.6 93 0.6 WNW 65 104 35 56 1025.4 1025.4 0.2
27/12:56am 12.7 1.9 11.4 92 0.7 WNW 59 104 32 56 1025.3 1025.3 0.2
27/12:53am 12.8 5.1 11.5 92 0.7 W 43 104 23 56 1025.3 1025.3 0.2
27/12:52am 12.8 6.7 11.7 93 0.6 W 35 83 19 45 1025.3 1025.3 0.2
27/12:50am 12.8 7.6 11.7 93 0.6 W 30 48 16 26 1025.3 1025.3 0.2
27/12:36am 12.9 11.1 12.0 94 0.5 WSW 13 32 7 17 1025.5 1025.5 0.2
27/12:33am 12.8 9.2 11.9 94 0.5 WSW 22 104 12 56 1025.5 1025.5 0.2
27/12:30am 12.7 4.2 11.9 95 0.4 WSW 48 104 26 56 1025.5 1025.5 0.2
27/12:26am 12.7 -1.9 11.9 95 0.4 WSW 80 104 43 56 1025.5 1025.5 0.2
27/12:19am 12.6 6.1 11.8 95 0.4 SW 37 104 20 56 1025.7 1025.7 0.2
27/12:18am 12.6 7.8 11.7 94 0.5 SW 28 104 15 56 1025.7 1025.7 0.2
27/12:17am 12.6 9.5 11.7 94 0.5 SW 19 63 10 34 1025.7 1025.7 0.2
27/12:16am 12.6 9.9 11.7 94 0.5 SW 17 50 9 27 1025.7 1025.7 0.2
27/12:00am 12.5 10.9 11.6 94 0.5 SW 11 13 6 7 1025.9 1025.9 0.2
 
Date/Time
EST
Temp
°C
App
Temp
°C
Dew
Point
Rel
Hum
%
Delta-T
°C
Wind Press
QNH
hPa
Press
MSL
hPa
Rain
since 9 am
mm
Dir
 
Spd
km/h
Gust
km/h
Spd
kts
Gust
kts
26/11:56pm 12.8 11.7 11.9 94 0.5 WSW 9 13 5 7 1025.9 1025.9 0.2
26/11:30pm 13.2 12.5 12.1 93 0.6 NW 7 7 4 4 1026.1 1026.1 0.2
26/11:00pm 13.4 12.7 12.0 91 0.7 WNW 7 9 4 5 1026.1 1026.1 0.2
26/10:43pm 13.7 12.3 12.1 90 0.9 NW 11 17 6 9 1026.0 1026.0 0.2
26/10:32pm 13.5 12.1 12.2 92 0.7 WNW 11 15 6 8 1026.3 1026.3 0.2
26/10:30pm 13.6 12.2 12.3 92 0.7 WNW 11 13 6 7 1026.3 1026.3 0.2
26/10:00pm 13.5 13.0 12.6 94 0.5 N 7 11 4 6 1026.0 1026.0 0.2
26/09:30pm 13.8 13.0 12.9 94 0.5 SW 9 11 5 6 1026.1 1026.1 0.2
26/09:00pm 13.4 13.0 12.5 94 0.5 NNW 6 7 3 4 1026.1 1026.1 0.2
26/08:30pm 14.2 14.0 12.9 92 0.7 SW 6 7 3 4 1026.1 1026.1 0.2
26/08:00pm 14.2 15.1 12.8 91 0.8 CALM 0 0 0 0 1026.3 1026.3 0.2
26/07:30pm 14.7 14.3 12.9 89 1.0 NW 7 7 4 4 1026.5 1026.5 0.2
26/07:00pm 15.2 14.9 13.2 88 1.1 NW 7 9 4 5 1026.3 1026.3 0.2
26/06:30pm 15.1 14.9 13.5 90 0.9 W 7 9 4 5 1026.2 1026.2 0.2
26/06:00pm 15.0 14.9 13.2 89 1.0 SSW 6 7 3 4 1025.8 1025.8 0.2
26/05:30pm 15.5 16.5 13.3 87 1.2 CALM 0 0 0 0 1025.7 1025.7 0.2
26/05:00pm 15.3 16.3 13.1 87 1.2 CALM 0 0 0 0 1025.4 1025.4 0.2
26/04:30pm 16.3 17.4 13.4 83 1.6 CALM 0 0 0 0 1025.7 1025.7 0.2
26/04:00pm 17.1 16.8 12.8 76 2.4 NW 6 7 3 4 1026.0 1026.0 0.2
26/03:30pm 17.9 18.1 11.9 68 3.3 ESE 2 6 1 3 1026.0 1026.0 0.2
26/03:00pm 18.2 17.3 11.5 65 3.6 SE 7 9 4 5 1026.0 1026.0 0.2
26/02:30pm 18.7 17.4 9.8 56 4.7 SSW 7 9 4 5 1026.2 1026.2 0.2
26/02:00pm 18.9 17.4 10.5 58 4.5 S 9 11 5 6 1026.1 1026.1 0.2
26/01:30pm 19.0 17.7 10.0 56 4.8 SSE 7 13 4 7 1026.1 1026.1 0.2
26/01:00pm 19.5 18.3 9.4 52 5.3 S 6 7 3 4 1026.4 1026.4 0.2
26/12:30pm 19.0 18.0 10.3 57 4.7 S 6 13 3 7 1027.0 1027.0 0.2
26/12:00pm 18.5 16.9 10.3 59 4.4 SW 9 13 5 7 1027.2 1027.2 0.2
26/11:30am 18.0 16.4 10.1 60 4.2 W 9 13 5 7 1027.9 1027.9 0.0
26/11:00am 17.3 15.2 9.7 61 4.0 WSW 11 15 6 8 1028.3 1028.3 0.0
26/10:30am 16.0 14.1 10.5 70 2.9 WNW 11 19 6 10 1028.9 1028.9 0.0
26/10:00am 15.0 13.0 10.2 73 2.5 W 11 15 6 8 1028.8 1028.8 0.0
26/09:30am 14.0 12.1 10.6 80 1.8 W 11 15 6 8 1028.9 1028.9 0.0
26/09:00am 12.7 10.2 9.7 82 1.5 W 13 17 7 9 1029.1 1029.1 0.0
26/08:30am 11.8 10.1 10.0 89 0.9 WNW 9 11 5 6 1028.9 1028.9 0.0
26/08:00am 10.9 9.1 9.5 91 0.7 W 9 13 5 7 1028.8 1028.8 0.0
26/07:30am 10.3 8.4 9.2 93 0.5 W 9 13 5 7 1028.5 1028.5 0.0
26/07:00am 9.8 7.5 9.0 95 0.4 WNW 11 20 6 11 1028.3 1028.3 0.0
26/06:30am 10.0 7.0 9.2 95 0.4 W 15 19 8 10 1028.2 1028.2 0.0
26/06:00am 10.2 7.6 9.3 94 0.4 W 13 19 7 10 1028.1 1028.1 0.0
26/05:30am 10.2 7.6 9.4 95 0.4 WNW 13 24 7 13 1028.2 1028.2 0.0
26/05:00am 10.4 7.5 9.8 96 0.3 WNW 15 20 8 11 1028.1 1028.1 0.0
26/04:30am 10.4 8.0 9.9 97 0.3 W 13 17 7 9 1027.9 1027.9 0.0
26/04:00am 10.2 7.8 9.9 98 0.1 WSW 13 17 7 9 1028.0 1028.0 0.0
26/03:30am 10.2 7.8 10.0 99 0.1 W 13 19 7 10 1027.8 1027.8 0.0
26/03:00am 10.1 6.5 9.8 98 0.1 WSW 19 28 10 15 1028.3 1028.3 0.0
26/02:30am 10.6 4.7 10.4 99 0.1 WNW 32 89 17 48 1028.4 1028.4 0.0
26/02:25am 10.6 5.8 10.4 99 0.1 WNW 26 89 14 48 1028.3 1028.3 0.0
26/02:00am 11.0 8.8 10.8 99 0.1 WNW 13 22 7 12 1028.7 1028.7 0.0
26/01:50am 10.9 -6.1 10.7 99 0.1 NW 91 104 49 56 1028.6 1028.6 0.0
26/01:49am 10.9 -7.9 10.7 99 0.1 NW 100 104 54 56 1028.6 1028.6 0.0
26/01:30am 10.8 -4.6 10.5 98 0.2 W 82 104 44 56 1028.8 1028.8 0.0
26/01:28am 11.0 -1.1 10.7 98 0.2 W 65 104 35 56 1028.7 1028.7 0.0
26/01:25am 11.1 4.0 10.8 98 0.2 WSW 39 104 21 56 1028.5 1028.5 0.0
26/01:24am 11.0 5.2 10.7 98 0.2 WSW 32 104 17 56 1028.5 1028.5 0.0
26/01:00am 11.2 7.9 11.0 99 0.1 W 19 43 10 23 1028.8 1028.8 0.0
26/12:30am 11.4 9.7 11.2 99 0.1 WSW 11 15 6 8 1029.1 1029.1 0.0
26/12:00am 11.6 9.6 11.4 99 0.1 WSW 13 17 7 9 1029.1 1029.1 0.0
 
Date/Time
EST
Temp
°C
App
Temp
°C
Dew
Point
Rel
Hum
%
Delta-T
°C
Wind Press
QNH
hPa
Press
MSL
hPa
Rain
since 9 am
mm
Dir
 
Spd
km/h
Gust
km/h
Spd
kts
Gust
kts
25/11:30pm 11.4 6.1 11.2 99 0.1 W 30 104 16 56 1029.1 1029.1 0.0
25/11:29pm 11.3 6.3 11.1 99 0.1 W 28 104 15 56 1029.0 1029.0 0.0
25/11:27pm 11.2 7.4 11.0 99 0.1 W 22 104 12 56 1029.0 1029.0 0.0
25/11:26pm 11.3 9.6 11.1 99 0.1 W 11 104 6 56 1029.0 1029.0 0.0
25/11:04pm 11.0 11.2 10.7 98 0.2 CALM 0 0 0 0 1029.0 1029.0 0.0
25/11:03pm 11.1 11.4 10.9 99 0.1 CALM 0 0 0 0 1029.0 1029.0 0.0
25/11:00pm 11.2 11.5 10.9 98 0.2 CALM 0 0 0 0 1029.0 1029.0 0.0
25/10:59pm 11.2 11.5 10.9 98 0.2 CALM 0 0 0 0 1029.0 1029.0 0.0
25/10:42pm 11.4 11.8 11.1 98 0.2 CALM 0 0 0 0 1029.4 1029.4 0.0
25/10:30pm 11.9 12.4 11.7 99 0.1 CALM 0 0 0 0 1029.7 1029.7 0.0
25/10:26pm 11.8 12.3 11.6 99 0.1 CALM 0 0 0 0 1029.7 1029.7 0.0
25/10:00pm 11.5 11.8 10.9 96 0.3 CALM 0 0 0 0 1029.6 1029.6 0.0
25/09:57pm 12.0 12.4 11.4 96 0.3 CALM 0 0 0 0 1029.7 1029.7 0.0
25/09:30pm 13.1 13.9 12.5 96 0.3 CALM 0 0 0 0 1029.9 1029.9 0.0
25/09:00pm 13.1 13.8 12.3 95 0.4 CALM 0 0 0 0 1029.9 1029.9 0.0
25/08:30pm 13.6 14.5 12.8 95 0.4 CALM 0 0 0 0 1030.0 1030.0 0.0
25/08:00pm 13.9 14.8 13.0 94 0.5 CALM 0 0 0 0 1029.8 1029.8 0.0
25/07:30pm 14.0 14.9 12.9 93 0.6 CALM 0 0 0 0 1029.6 1029.6 0.0
25/07:00pm 13.7 14.5 12.4 92 0.7 CALM 0 0 0 0 1029.3 1029.3 0.0
25/06:30pm 14.9 15.9 13.1 89 1.0 CALM 0 0 0 0 1029.3 1029.3 0.0
25/06:00pm 15.3 16.2 12.8 85 1.4 CALM 0 0 0 0 1028.9 1028.9 0.0
25/05:30pm 15.6 16.6 13.1 85 1.4 CALM 0 0 0 0 1028.4 1028.4 0.0
25/05:00pm 16.6 17.5 12.9 79 2.0 CALM 0 0 0 0 1028.6 1028.6 0.0
25/04:30pm 17.3 17.4 12.6 74 2.6 E 4 6 2 3 1028.7 1028.7 0.0
25/04:00pm 17.6 17.1 12.7 73 2.7 E 7 9 4 5 1028.4 1028.4 0.0
25/03:30pm 18.3 17.2 12.1 67 3.4 ESE 9 11 5 6 1028.6 1028.6 0.0
25/03:00pm 19.2 19.8 12.0 63 4.0 CALM 0 4 0 2 1028.9 1028.9 0.0
25/02:30pm 18.9 18.1 11.7 63 4.0 NNE 7 9 4 5 1029.0 1029.0 0.0
25/02:00pm 19.2 18.3 10.7 58 4.6 NNE 6 9 3 5 1029.1 1029.1 0.0
25/01:30pm 19.8 19.8 11.0 57 4.8 ENE 2 7 1 4 1029.2 1029.2 0.0
25/01:00pm 19.4 18.4 10.4 56 4.8 ENE 6 9 3 5 1029.3 1029.3 0.0
25/12:30pm 19.6 19.4 9.2 51 5.5 CALM 0 4 0 2 1029.5 1029.5 0.0
25/12:00pm 19.9 19.1 9.5 51 5.5 WNW 4 7 2 4 1030.1 1030.1 0.0
25/11:30am 18.8 17.5 9.8 56 4.8 WSW 7 9 4 5 1030.9 1030.9 0.0
25/11:00am 17.4 15.6 9.3 59 4.2 WSW 9 11 5 6 1031.5 1031.5 0.0
25/10:30am 16.3 14.1 9.3 63 3.6 WSW 11 15 6 8 1031.9 1031.9 0.0
25/10:00am 15.2 12.9 8.9 66 3.2 W 11 15 6 8 1032.2 1032.2 0.0
25/09:30am 14.1 12.2 9.1 72 2.5 WSW 9 11 5 6 1032.1 1032.1 0.0
25/09:00am 13.3 11.4 9.0 75 2.2 W 9 13 5 7 1032.1 1032.1 0.0
25/08:30am 12.4 10.2 9.2 81 1.6 W 11 22 6 12 1032.1 1032.1 0.0
25/08:00am 11.2 9.2 8.8 85 1.2 W 9 13 5 7 1032.0 1032.0 0.0
25/07:30am 10.1 7.3 8.5 90 0.8 W 13 17 7 9 1031.8 1031.8 0.0
25/07:00am 9.8 7.7 8.2 90 0.8 W 9 13 5 7 1031.7 1031.7 0.0
25/06:30am 9.5 7.4 8.1 91 0.7 WNW 9 17 5 9 1031.4 1031.4 0.0
25/06:00am 10.0 7.9 8.4 90 0.8 WNW 9 17 5 9 1031.1 1031.1 0.0
25/05:30am 10.3 8.2 8.2 87 1.0 WNW 9 15 5 8 1031.1 1031.1 0.0
25/05:00am 10.6 8.2 8.5 87 1.0 W 11 15 6 8 1031.0 1031.0 0.0
25/04:30am 10.8 8.5 8.9 88 0.9 W 11 13 6 7 1031.1 1031.1 0.0
25/04:00am 11.1 9.2 9.2 88 0.9 WSW 9 13 5 7 1031.0 1031.0 0.0
25/03:30am 11.2 8.6 9.5 89 0.9 WSW 13 17 7 9 1031.0 1031.0 0.0
25/03:00am 11.1 8.5 9.4 89 0.8 WSW 13 20 7 11 1031.2 1031.2 0.0
25/02:30am 11.0 9.2 9.6 91 0.7 WSW 9 13 5 7 1031.0 1031.0 0.0
25/02:00am 11.1 9.3 9.5 90 0.8 WSW 9 13 5 7 1031.0 1031.0 0.0
25/01:30am 11.4 9.3 9.8 90 0.8 WSW 11 15 6 8 1031.3 1031.3 0.0
25/01:00am 11.6 10.3 10.0 90 0.8 W 7 9 4 5 1031.2 1031.2 0.0
25/12:30am 12.3 10.0 10.5 89 0.9 WNW 13 17 7 9 1031.3 1031.3 0.0
25/12:00am 12.6 11.2 10.8 89 0.9 W 9 11 5 6 1031.6 1031.6 0.0
 
Date/Time
EST
Temp
°C
App
Temp
°C
Dew
Point
Rel
Hum
%
Delta-T
°C
Wind Press
QNH
hPa
Press
MSL
hPa
Rain
since 9 am
mm
Dir
 
Spd
km/h
Gust
km/h
Spd
kts
Gust
kts
24/11:30pm 12.7 11.7 10.9 89 0.9 WSW 7 9 4 5 1031.8 1031.8 0.0
24/11:00pm 12.7 11.2 10.6 87 1.1 WNW 9 11 5 6 1031.9 1031.9 0.0
24/10:30pm 12.9 11.1 11.0 88 1.0 SW 11 15 6 8 1031.8 1031.8 0.0
24/10:00pm 12.9 11.2 11.1 89 0.9 W 11 15 6 8 1031.8 1031.8 0.0
24/09:30pm 13.6 11.9 11.1 85 1.3 W 11 15 6 8 1032.0 1032.0 0.0
24/09:00pm 14.3 12.2 11.1 81 1.7 WNW 13 15 7 8 1031.9 1031.9 0.0
24/08:30pm 14.4 12.4 11.6 83 1.5 WNW 13 17 7 9 1031.7 1031.7 0.0
24/08:00pm 15.0 13.4 11.4 79 1.9 W 11 13 6 7 1031.4 1031.4 0.0
24/07:30pm 14.9 14.2 11.3 79 1.9 WNW 6 7 3 4 1031.2 1031.2 0.0
24/07:00pm 14.7 15.1 11.3 80 1.8 CALM 0 9 0 5 1031.2 1031.2 0.0
24/06:30pm 15.6 15.9 10.8 73 2.5 CALM 0 0 0 0 1031.0 1031.0 0.0
24/06:00pm 15.6 14.7 11.4 76 2.2 S 7 9 4 5 1030.9 1030.9 0.0

Other Formats:

Comma delimited format used in spreadsheet applications
http://www.bom.gov.au/fwo/IDN60801/IDN60801.95784.axf

JavaScript Object Notation format (JSON) in row-major order
http://www.bom.gov.au/fwo/IDN60801/IDN60801.95784.json